createdAt,value
2019-05-17T00:00:49.431Z,11.90
2019-05-17T00:03:21.477Z,11.90
2019-05-17T00:05:52.104Z,12.00
2019-05-17T00:08:34.328Z,11.80
2019-05-17T00:11:02.230Z,11.70
2019-05-17T00:13:33.239Z,11.70
2019-05-17T00:16:07.216Z,11.60
2019-05-17T00:18:39.485Z,11.60
2019-05-17T00:21:09.956Z,11.70
2019-05-17T00:23:43.866Z,11.60
2019-05-17T00:26:16.408Z,11.70
2019-05-17T00:28:48.265Z,11.70
2019-05-17T00:31:19.929Z,11.60
2019-05-17T00:33:51.726Z,11.50
2019-05-17T00:36:22.573Z,11.60
2019-05-17T00:38:53.821Z,11.80
2019-05-17T00:41:26.954Z,11.70
2019-05-17T00:43:58.225Z,11.70
2019-05-17T00:46:31.205Z,11.70
2019-05-17T00:49:03.143Z,12.10
2019-05-17T00:51:36.882Z,11.90
2019-05-17T00:54:13.841Z,11.90
2019-05-17T00:56:46.403Z,11.90
2019-05-17T00:59:17.368Z,12.30
2019-05-17T01:01:52.014Z,12.00
2019-05-17T01:04:27.961Z,12.10
2019-05-17T01:06:59.097Z,12.00
2019-05-17T01:09:32.431Z,12.00
2019-05-17T01:12:08.591Z,12.00
2019-05-17T01:14:38.793Z,12.10
2019-05-17T01:17:10.903Z,12.40
2019-05-17T01:19:41.343Z,12.20
2019-05-17T01:22:11.568Z,12.30
2019-05-17T01:24:42.049Z,12.10
2019-05-17T01:27:12.868Z,12.00
2019-05-17T01:29:43.893Z,12.40
2019-05-17T01:32:17.026Z,12.20
2019-05-17T01:34:47.104Z,12.30
2019-05-17T01:37:17.388Z,12.20
2019-05-17T01:39:47.598Z,12.10
2019-05-17T01:42:17.842Z,12.10
2019-05-17T01:44:48.254Z,12.10
2019-05-17T01:47:18.818Z,12.30
2019-05-17T01:49:49.518Z,12.30
2019-05-17T01:52:19.986Z,12.10
2019-05-17T01:54:50.162Z,12.00
2019-05-17T01:57:20.992Z,12.20
2019-05-17T01:59:51.193Z,12.30
2019-05-17T02:02:27.061Z,12.30
2019-05-17T02:04:57.606Z,12.40
2019-05-17T02:07:27.824Z,12.30
2019-05-17T02:09:58.009Z,12.20
2019-05-17T02:12:28.214Z,12.10
2019-05-17T02:14:58.459Z,12.00
2019-05-17T02:17:28.652Z,12.30
2019-05-17T02:19:58.867Z,12.00
2019-05-17T02:22:29.086Z,12.00
2019-05-17T02:24:59.308Z,12.10
2019-05-17T02:27:35.830Z,12.00
2019-05-17T02:30:02.557Z,12.00
2019-05-17T02:32:33.807Z,12.00
2019-05-17T02:35:04.666Z,12.10
2019-05-17T02:37:34.885Z,12.00
2019-05-17T02:40:08.295Z,12.00
2019-05-17T02:42:38.849Z,12.20
2019-05-17T02:45:09.159Z,12.10
2019-05-17T02:47:43.118Z,11.90
2019-05-17T02:50:12.816Z,12.10
2019-05-17T02:52:44.279Z,12.10
2019-05-17T02:55:15.049Z,12.00
2019-05-17T02:57:45.243Z,11.90
2019-05-17T03:00:15.980Z,12.10
2019-05-17T03:02:46.237Z,12.00
2019-05-17T03:05:16.713Z,11.90
2019-05-17T03:07:46.959Z,11.90
2019-05-17T03:10:23.692Z,12.30
2019-05-17T03:12:52.708Z,12.10
2019-05-17T03:15:23.407Z,12.10
2019-05-17T03:17:53.827Z,11.90
2019-05-17T03:20:24.111Z,12.00
2019-05-17T03:22:54.810Z,12.00
2019-05-17T03:25:25.048Z,11.90
2019-05-17T03:27:55.270Z,12.00
2019-05-17T03:30:26.406Z,12.00
2019-05-17T03:32:57.314Z,12.10
2019-05-17T03:35:28.099Z,12.50
2019-05-17T03:37:58.318Z,12.00
2019-05-17T03:40:58.485Z,11.90
2019-05-17T03:43:02.740Z,12.00
2019-05-17T03:45:34.185Z,12.00
2019-05-17T03:48:05.428Z,11.90
2019-05-17T03:50:35.637Z,11.90
2019-05-17T03:53:06.149Z,11.90
2019-05-17T03:55:37.108Z,11.90
2019-05-17T03:58:07.360Z,12.00
2019-05-17T04:00:37.534Z,12.00
2019-05-17T04:03:07.745Z,12.00
2019-05-17T04:05:37.976Z,12.00
2019-05-17T04:08:08.245Z,11.90
2019-05-17T04:10:38.465Z,12.00
2019-05-17T04:13:08.715Z,12.00
2019-05-17T04:15:38.942Z,11.90
2019-05-17T04:18:09.123Z,11.90
2019-05-17T04:20:39.692Z,11.90
2019-05-17T04:23:12.713Z,11.80
2019-05-17T04:25:43.616Z,12.00
2019-05-17T04:28:14.387Z,12.10
2019-05-17T04:30:44.620Z,11.80
2019-05-17T04:33:15.270Z,11.80
2019-05-17T04:35:48.411Z,11.80
2019-05-17T04:38:18.877Z,12.00
2019-05-17T04:40:54.532Z,12.00
2019-05-17T04:43:27.791Z,12.00
2019-05-17T04:45:58.018Z,12.00
2019-05-17T04:48:28.234Z,12.00
2019-05-17T04:50:58.608Z,11.80
2019-05-17T04:53:32.510Z,11.70
2019-05-17T04:56:03.097Z,11.70
2019-05-17T04:58:33.893Z,11.60
2019-05-17T05:01:05.505Z,11.30
2019-05-17T05:03:35.767Z,11.70
2019-05-17T05:06:06.014Z,11.70
2019-05-17T05:08:36.242Z,11.70
2019-05-17T05:11:06.557Z,11.60
2019-05-17T05:13:37.151Z,11.60
2019-05-17T05:16:07.409Z,11.60
2019-05-17T05:18:37.655Z,11.70
2019-05-17T05:21:08.207Z,11.70
2019-05-17T05:23:38.799Z,11.80
2019-05-17T05:26:11.865Z,11.80
2019-05-17T05:28:41.970Z,11.70
2019-05-17T05:31:13.322Z,12.00
2019-05-17T05:33:43.724Z,11.90
2019-05-17T05:36:14.501Z,11.90
2019-05-17T05:38:44.686Z,11.70
2019-05-17T05:41:14.960Z,11.70
2019-05-17T05:43:45.194Z,11.70
2019-05-17T05:46:15.384Z,11.50
2019-05-17T05:48:45.974Z,11.40
2019-05-17T05:51:16.220Z,11.40
2019-05-17T05:53:46.884Z,11.50
2019-05-17T05:56:17.147Z,11.30
2019-05-17T05:58:47.363Z,11.20
2019-05-17T06:01:17.900Z,11.70
2019-05-17T06:03:48.110Z,11.60
2019-05-17T06:06:18.332Z,11.90
2019-05-17T06:08:48.844Z,11.90
2019-05-17T06:11:21.482Z,11.90
2019-05-17T06:13:52.368Z,11.80
2019-05-17T06:16:23.134Z,12.10
2019-05-17T06:18:53.678Z,12.00
2019-05-17T06:21:23.904Z,12.00
2019-05-17T06:23:54.742Z,11.90
2019-05-17T06:26:25.275Z,11.90
2019-05-17T06:28:55.549Z,12.10
2019-05-17T06:31:26.491Z,12.00
2019-05-17T06:33:57.041Z,11.80
2019-05-17T06:36:27.309Z,12.10
2019-05-17T06:38:57.550Z,11.80
2019-05-17T06:41:27.773Z,11.70
2019-05-17T06:43:58.339Z,11.90
2019-05-17T06:46:28.569Z,12.30
2019-05-17T06:48:58.990Z,12.20
2019-05-17T06:51:31.509Z,12.10
2019-05-17T06:54:01.790Z,12.20
2019-05-17T06:56:32.296Z,12.40
2019-05-17T06:59:03.193Z,12.40
2019-05-17T07:01:33.323Z,12.60
2019-05-17T07:04:03.459Z,12.40
2019-05-17T07:06:34.922Z,12.40
2019-05-17T07:09:06.345Z,12.40
2019-05-17T07:11:36.967Z,12.20
2019-05-17T07:14:09.261Z,12.30
2019-05-17T07:16:39.826Z,12.40
2019-05-17T07:19:10.504Z,12.50
2019-05-17T07:21:41.180Z,12.40
2019-05-17T07:24:11.414Z,12.30
2019-05-17T07:26:41.641Z,12.10
2019-05-17T07:29:12.153Z,12.30
2019-05-17T07:31:42.390Z,12.30
2019-05-17T07:34:12.600Z,12.30
2019-05-17T07:36:42.736Z,12.30
2019-05-17T07:39:12.979Z,12.30
2019-05-17T07:41:43.890Z,12.30
2019-05-17T07:44:14.183Z,12.20
2019-05-17T07:46:44.747Z,12.40
2019-05-17T07:49:15.039Z,12.30
2019-05-17T07:51:45.253Z,12.30
2019-05-17T07:54:15.681Z,12.30
2019-05-17T07:56:45.902Z,12.40
2019-05-17T07:59:16.166Z,12.80
2019-05-17T08:01:46.324Z,12.70
2019-05-17T08:04:16.914Z,12.70
2019-05-17T08:06:50.456Z,12.80
2019-05-17T08:09:20.446Z,12.60
2019-05-17T08:11:50.736Z,12.60
2019-05-17T08:14:29.903Z,12.70
2019-05-17T08:16:53.492Z,12.70
2019-05-17T08:19:23.698Z,12.60
2019-05-17T08:21:54.101Z,12.70
2019-05-17T08:24:26.066Z,12.60
2019-05-17T08:26:56.672Z,12.80
2019-05-17T08:29:29.574Z,12.80
2019-05-17T08:32:00.369Z,12.90
2019-05-17T08:34:31.008Z,13.10
2019-05-17T08:37:01.550Z,13.40
2019-05-17T08:39:31.793Z,12.90
2019-05-17T08:42:01.989Z,13.10
2019-05-17T08:44:32.501Z,13.10
2019-05-17T08:47:03.971Z,13.00
2019-05-17T08:49:35.044Z,13.00
2019-05-17T08:52:05.282Z,13.20
2019-05-17T08:54:35.475Z,13.30
2019-05-17T08:57:13.116Z,13.20
2019-05-17T08:59:49.596Z,13.20
2019-05-17T09:02:23.536Z,13.00
2019-05-17T09:04:53.749Z,13.10
2019-05-17T09:07:24.293Z,13.10
2019-05-17T09:09:54.465Z,13.00
2019-05-17T09:12:24.725Z,13.30
2019-05-17T09:14:54.970Z,13.40
2019-05-17T09:17:25.119Z,13.20
2019-05-17T09:19:55.341Z,13.30
2019-05-17T09:22:25.893Z,13.40
2019-05-17T09:24:56.347Z,13.60
2019-05-17T09:27:27.279Z,13.50
2019-05-17T09:29:57.949Z,13.40
2019-05-17T09:32:29.690Z,13.20
2019-05-17T09:35:00.409Z,13.40
2019-05-17T09:37:30.995Z,13.50
2019-05-17T09:40:01.622Z,13.50
2019-05-17T09:42:31.869Z,13.50
2019-05-17T09:45:02.148Z,14.00
2019-05-17T09:47:32.843Z,13.60
2019-05-17T09:50:03.053Z,13.90
2019-05-17T09:52:33.228Z,13.60
2019-05-17T09:55:04.045Z,13.40
2019-05-17T09:57:34.251Z,13.40
2019-05-17T10:00:05.941Z,13.60
2019-05-17T10:02:36.242Z,13.50
2019-05-17T10:05:06.684Z,13.70
2019-05-17T10:07:36.890Z,13.60
2019-05-17T10:10:10.113Z,13.70
2019-05-17T10:12:40.616Z,13.80
2019-05-17T10:15:11.578Z,13.60
2019-05-17T10:17:42.226Z,14.20
2019-05-17T10:20:12.510Z,14.10
2019-05-17T10:22:42.718Z,14.00
2019-05-17T10:25:13.437Z,14.10
2019-05-17T10:27:43.552Z,14.10
2019-05-17T10:30:13.980Z,13.90
2019-05-17T10:32:44.997Z,13.60
2019-05-17T10:35:15.255Z,13.50
2019-05-17T10:37:45.498Z,13.60
2019-05-17T10:40:16.288Z,13.50
2019-05-17T10:42:46.518Z,13.40
2019-05-17T10:45:16.834Z,13.40
2019-05-17T10:47:47.064Z,13.50
2019-05-17T10:50:17.301Z,13.40
2019-05-17T10:52:47.528Z,13.60
2019-05-17T10:55:19.825Z,13.70
2019-05-17T10:57:50.428Z,14.00
2019-05-17T11:00:20.963Z,14.00
2019-05-17T11:02:51.236Z,13.80
2019-05-17T11:05:21.444Z,13.90
2019-05-17T11:07:51.675Z,13.80
2019-05-17T11:10:22.019Z,13.70
2019-05-17T11:12:52.895Z,14.00
2019-05-17T11:15:23.167Z,13.90
2019-05-17T11:17:53.777Z,13.80
2019-05-17T11:20:23.924Z,13.90
2019-05-17T11:22:54.524Z,13.90
2019-05-17T11:25:25.178Z,14.00
2019-05-17T11:27:55.804Z,13.90
2019-05-17T11:30:26.429Z,13.80
2019-05-17T11:32:56.667Z,13.70
2019-05-17T11:35:27.154Z,13.80
2019-05-17T11:37:58.384Z,13.70
2019-05-17T11:40:28.694Z,14.00
2019-05-17T11:42:59.047Z,14.10
2019-05-17T11:45:32.656Z,14.10
2019-05-17T11:48:02.294Z,14.00
2019-05-17T11:50:32.859Z,14.40
2019-05-17T11:53:03.766Z,14.00
2019-05-17T11:55:34.412Z,14.10
2019-05-17T11:58:04.684Z,14.00
2019-05-17T12:00:35.235Z,14.10
2019-05-17T12:03:05.760Z,14.00
2019-05-17T12:05:35.968Z,14.00
2019-05-17T12:08:08.626Z,14.30
2019-05-17T12:10:38.624Z,14.40
2019-05-17T12:13:10.471Z,14.30
2019-05-17T12:15:44.990Z,14.30
2019-05-17T12:18:13.411Z,14.40
2019-05-17T12:20:44.049Z,14.40
2019-05-17T12:23:14.591Z,14.40
2019-05-17T12:25:46.086Z,14.50
2019-05-17T12:28:16.292Z,14.50
2019-05-17T12:30:46.448Z,14.50
2019-05-17T12:33:16.683Z,14.30
2019-05-17T12:35:46.838Z,14.60
2019-05-17T12:38:17.095Z,14.30
2019-05-17T12:40:47.688Z,14.70
2019-05-17T12:43:18.223Z,14.40
2019-05-17T12:46:00.067Z,13.90
2019-05-17T12:48:20.299Z,13.80
2019-05-17T12:50:50.827Z,13.70
2019-05-17T12:53:21.103Z,13.60
2019-05-17T12:55:51.703Z,13.60
2019-05-17T12:58:24.399Z,13.40
2019-05-17T13:00:54.775Z,13.80
2019-05-17T13:03:25.028Z,13.70
2019-05-17T13:06:06.020Z,13.70
2019-05-17T13:08:36.317Z,13.70
2019-05-17T13:11:07.191Z,13.70
2019-05-17T13:13:37.447Z,14.00
2019-05-17T13:16:17.441Z,14.20
2019-05-17T13:18:39.886Z,14.20
2019-05-17T13:21:10.117Z,14.10
2019-05-17T13:23:40.345Z,14.10
2019-05-17T13:26:11.171Z,14.20
2019-05-17T13:28:41.940Z,14.10
2019-05-17T13:31:12.282Z,14.10
2019-05-17T13:33:42.579Z,14.20
2019-05-17T13:36:12.839Z,14.80
2019-05-17T13:38:43.107Z,14.50
2019-05-17T13:41:13.308Z,14.80
2019-05-17T13:43:43.528Z,14.80
2019-05-17T13:46:14.057Z,14.70
2019-05-17T13:48:44.390Z,14.80
2019-05-17T13:51:14.969Z,14.50
2019-05-17T13:53:45.239Z,14.30
2019-05-17T13:56:16.911Z,14.10
2019-05-17T13:58:47.158Z,14.00
2019-05-17T14:01:17.413Z,14.20
2019-05-17T14:03:47.677Z,14.00
2019-05-17T14:06:18.278Z,14.10
2019-05-17T14:08:48.470Z,13.80
2019-05-17T14:11:19.086Z,14.00
2019-05-17T14:13:49.583Z,14.10
2019-05-17T14:16:20.217Z,14.30
2019-05-17T14:18:50.893Z,14.20
2019-05-17T14:21:26.043Z,14.20
2019-05-17T14:23:56.356Z,14.20
2019-05-17T14:26:27.140Z,14.20
2019-05-17T14:28:57.516Z,14.00
2019-05-17T14:31:27.752Z,14.10
2019-05-17T14:34:00.912Z,14.10
2019-05-17T14:36:31.240Z,14.20
2019-05-17T14:39:01.475Z,14.10
2019-05-17T14:41:31.833Z,14.10
2019-05-17T14:44:02.489Z,14.10
2019-05-17T14:46:32.743Z,14.00
2019-05-17T14:49:03.047Z,13.90
2019-05-17T14:51:33.931Z,13.90
2019-05-17T14:54:04.506Z,14.10
2019-05-17T14:56:34.770Z,13.80
2019-05-17T14:59:05.071Z,13.80
2019-05-17T15:01:35.251Z,14.10
2019-05-17T15:04:05.756Z,13.80
2019-05-17T15:06:36.488Z,14.00
2019-05-17T15:09:07.221Z,14.00
2019-05-17T15:11:37.447Z,14.20
2019-05-17T15:14:08.347Z,14.30
2019-05-17T15:16:38.885Z,14.40
2019-05-17T15:19:09.072Z,14.50
2019-05-17T15:21:40.025Z,14.30
2019-05-17T15:24:10.213Z,14.20
2019-05-17T15:26:40.448Z,14.40
2019-05-17T15:29:10.644Z,14.90
2019-05-17T15:31:41.221Z,14.80
2019-05-17T15:34:11.705Z,14.50
2019-05-17T15:36:41.911Z,14.50
2019-05-17T15:39:12.461Z,14.40
2019-05-17T15:41:42.712Z,14.90
2019-05-17T15:44:12.895Z,14.50
2019-05-17T15:46:43.203Z,14.80
2019-05-17T15:49:13.349Z,14.50
2019-05-17T15:51:43.880Z,14.20
2019-05-17T15:54:14.482Z,14.10
2019-05-17T15:56:44.956Z,14.00
2019-05-17T15:59:15.203Z,14.10
2019-05-17T16:01:45.409Z,13.90
2019-05-17T16:04:15.630Z,13.80
2019-05-17T16:06:51.731Z,13.80
2019-05-17T16:09:21.959Z,13.70
2019-05-17T16:11:52.205Z,13.70
2019-05-17T16:14:22.403Z,13.70
2019-05-17T16:17:09.543Z,13.70
2019-05-17T16:19:41.504Z,13.70
2019-05-17T16:22:12.041Z,13.70
2019-05-17T16:24:42.640Z,13.80
2019-05-17T16:27:12.864Z,13.80
2019-05-17T16:29:43.426Z,14.00
2019-05-17T16:32:13.678Z,13.70
2019-05-17T16:34:44.163Z,14.00
2019-05-17T16:37:14.927Z,13.70
2019-05-17T16:39:45.129Z,13.80
2019-05-17T16:42:15.668Z,14.00
2019-05-17T16:44:45.898Z,13.70
2019-05-17T16:47:16.624Z,13.90
2019-05-17T16:49:47.362Z,13.80
2019-05-17T16:52:18.129Z,14.10
2019-05-17T16:54:48.746Z,14.00
2019-05-17T16:57:18.982Z,14.00
2019-05-17T16:59:49.582Z,13.90
2019-05-17T17:02:20.495Z,13.90
2019-05-17T17:04:50.731Z,14.00
2019-05-17T17:07:20.917Z,14.00
2019-05-17T17:09:51.135Z,14.00
2019-05-17T17:12:21.629Z,14.00
2019-05-17T17:14:51.853Z,14.00
2019-05-17T17:17:22.094Z,13.90
2019-05-17T17:19:52.608Z,13.80
2019-05-17T17:22:23.415Z,13.70
2019-05-17T17:24:53.631Z,13.70
2019-05-17T17:27:31.911Z,13.90
2019-05-17T17:30:02.542Z,14.10
2019-05-17T17:32:32.819Z,13.80
2019-05-17T17:35:03.500Z,13.80
2019-05-17T17:37:33.722Z,13.70
2019-05-17T17:40:03.940Z,13.90
2019-05-17T17:42:34.375Z,14.00
2019-05-17T17:45:05.443Z,14.00
2019-05-17T17:47:35.702Z,13.60
2019-05-17T17:50:06.617Z,13.70
2019-05-17T17:52:36.817Z,13.60
2019-05-17T17:55:07.378Z,13.50
2019-05-17T17:57:37.640Z,13.50
2019-05-17T18:00:09.729Z,13.50
2019-05-17T18:02:40.391Z,13.50
2019-05-17T18:05:10.882Z,13.40
2019-05-17T18:07:41.130Z,13.40
2019-05-17T18:10:13.291Z,13.30
2019-05-17T18:12:43.522Z,13.40
2019-05-17T18:15:14.276Z,13.50
2019-05-17T18:17:44.982Z,13.30
2019-05-17T18:20:15.540Z,13.40
2019-05-17T18:22:46.212Z,13.40
2019-05-17T18:25:16.435Z,13.40
2019-05-17T18:27:47.079Z,13.40
2019-05-17T18:30:35.245Z,13.60
2019-05-17T18:33:05.716Z,13.10
2019-05-17T18:35:36.808Z,13.30
2019-05-17T18:38:07.997Z,13.30
2019-05-17T18:40:38.215Z,13.30
2019-05-17T18:43:08.493Z,13.10
2019-05-17T18:45:39.144Z,13.60
2019-05-17T18:48:09.820Z,13.20
2019-05-17T18:50:40.075Z,13.10
2019-05-17T18:53:16.703Z,13.30
2019-05-17T18:55:43.387Z,13.70
2019-05-17T18:58:13.577Z,13.60
2019-05-17T19:00:43.931Z,13.30
2019-05-17T19:03:14.173Z,13.20
2019-05-17T19:05:45.414Z,13.20
2019-05-17T19:08:16.224Z,13.10
2019-05-17T19:10:46.523Z,13.10
2019-05-17T19:13:17.083Z,13.00
2019-05-17T19:15:47.989Z,13.30
2019-05-17T19:18:18.790Z,13.10
2019-05-17T19:20:49.412Z,13.10
2019-05-17T19:23:19.643Z,13.10
2019-05-17T19:25:49.907Z,13.00
2019-05-17T19:28:20.152Z,13.30
2019-05-17T19:30:50.730Z,13.00
2019-05-17T19:33:20.981Z,13.00
2019-05-17T19:35:51.231Z,12.90
2019-05-17T19:38:21.718Z,13.10
2019-05-17T19:40:52.267Z,13.10
2019-05-17T19:43:22.889Z,13.30
2019-05-17T19:45:53.142Z,13.00
2019-05-17T19:48:23.355Z,13.00
2019-05-17T19:50:53.631Z,12.80
2019-05-17T19:53:24.176Z,12.80
2019-05-17T19:55:54.412Z,12.90
2019-05-17T19:58:24.947Z,12.80
2019-05-17T20:00:55.559Z,12.80
2019-05-17T20:03:25.801Z,12.90
2019-05-17T20:05:56.418Z,12.80
2019-05-17T20:08:27.077Z,12.70
2019-05-17T20:10:57.326Z,12.60
2019-05-17T20:13:27.597Z,12.60
2019-05-17T20:15:58.118Z,12.50
2019-05-17T20:18:28.389Z,12.50
2019-05-17T20:20:58.644Z,12.80
2019-05-17T20:23:29.177Z,12.50
2019-05-17T20:25:59.402Z,12.40
2019-05-17T20:28:29.604Z,12.50
2019-05-17T20:31:00.099Z,12.40
2019-05-17T20:33:30.294Z,12.30
2019-05-17T20:36:01.771Z,12.30
2019-05-17T20:38:32.682Z,12.30
2019-05-17T20:41:03.605Z,12.20
2019-05-17T20:43:34.287Z,12.00
2019-05-17T20:46:04.620Z,12.10
2019-05-17T20:48:35.517Z,12.10
2019-05-17T20:51:05.733Z,12.10
2019-05-17T20:53:36.294Z,12.10
2019-05-17T20:56:06.651Z,12.20
2019-05-17T20:58:37.241Z,12.00
2019-05-17T21:01:07.531Z,12.00
2019-05-17T21:03:37.842Z,11.90
2019-05-17T21:06:08.048Z,11.90
2019-05-17T21:08:46.149Z,11.80
2019-05-17T21:11:10.516Z,11.80
2019-05-17T21:13:41.010Z,12.00
2019-05-17T21:16:11.561Z,11.50
2019-05-17T21:18:41.824Z,11.80
2019-05-17T21:21:12.305Z,11.60
2019-05-17T21:23:43.199Z,11.60
2019-05-17T21:26:13.429Z,11.80
2019-05-17T21:28:46.908Z,11.60
2019-05-17T21:31:16.069Z,11.60
2019-05-17T21:33:46.961Z,11.40
2019-05-17T21:36:17.125Z,11.70
2019-05-17T21:38:47.349Z,11.40
2019-05-17T21:41:17.545Z,11.70
2019-05-17T21:43:48.608Z,11.60
2019-05-17T21:46:18.848Z,11.60
2019-05-17T21:48:49.765Z,11.50
2019-05-17T21:51:20.367Z,11.50
2019-05-17T21:53:51.003Z,11.70
2019-05-17T21:56:21.625Z,11.50
2019-05-17T21:58:51.880Z,11.60
2019-05-17T22:01:25.503Z,11.50
2019-05-17T22:03:55.756Z,11.60
2019-05-17T22:06:26.284Z,11.40
2019-05-17T22:08:56.493Z,11.60
2019-05-17T22:11:27.200Z,11.60
2019-05-17T22:13:57.364Z,11.60
2019-05-17T22:16:34.975Z,11.60
2019-05-17T22:19:05.541Z,11.60
2019-05-17T22:21:36.055Z,11.50
2019-05-17T22:24:06.340Z,11.60
2019-05-17T22:26:36.556Z,11.90
2019-05-17T22:29:07.077Z,11.60
2019-05-17T22:31:39.021Z,11.70
2019-05-17T22:34:09.316Z,11.70
2019-05-17T22:36:39.550Z,11.50
2019-05-17T22:39:09.771Z,11.90
2019-05-17T22:41:40.314Z,11.70
2019-05-17T22:44:10.550Z,12.20
2019-05-17T22:46:40.775Z,12.20
2019-05-17T22:49:11.023Z,12.20
2019-05-17T22:51:41.549Z,12.00
2019-05-17T22:54:11.730Z,11.80
2019-05-17T22:56:41.992Z,11.60
2019-05-17T22:59:12.526Z,11.80
2019-05-17T23:01:42.770Z,11.50
2019-05-17T23:04:13.004Z,11.60
2019-05-17T23:06:43.459Z,11.30
2019-05-17T23:09:13.990Z,11.40
2019-05-17T23:11:44.355Z,11.10
2019-05-17T23:14:14.620Z,11.00
2019-05-17T23:16:51.543Z,11.10
2019-05-17T23:19:16.666Z,11.30
2019-05-17T23:21:47.575Z,11.00
2019-05-17T23:24:18.375Z,11.00
2019-05-17T23:26:48.619Z,11.10
2019-05-17T23:29:19.208Z,10.90
2019-05-17T23:31:49.337Z,11.00
2019-05-17T23:34:19.577Z,10.80
2019-05-17T23:36:49.850Z,10.70
2019-05-17T23:39:20.099Z,11.10
2019-05-17T23:41:50.281Z,10.70
2019-05-17T23:44:20.485Z,10.60
2019-05-17T23:47:04.792Z,10.60
2019-05-17T23:49:23.517Z,10.70
2019-05-17T23:51:54.388Z,10.40
2019-05-17T23:54:25.235Z,10.50
2019-05-17T23:56:56.196Z,10.40
2019-05-17T23:59:26.878Z,10.60
